createdAt,value
2019-04-25T00:04:22.350Z,98.55
2019-04-25T00:09:43.817Z,97.64
2019-04-25T00:15:02.668Z,97.28
2019-04-25T00:20:22.861Z,97.53
2019-04-25T00:25:45.847Z,96.79
2019-04-25T00:31:05.043Z,96.00
2019-04-25T00:36:23.636Z,95.93
2019-04-25T00:41:44.358Z,96.08
2019-04-25T00:47:02.612Z,96.48
2019-04-25T00:52:22.749Z,96.17
2019-04-25T00:57:42.654Z,97.91
2019-04-25T01:03:03.752Z,98.76
2019-04-25T01:08:22.500Z,100.00
2019-04-25T01:13:42.281Z,100.00
2019-04-25T01:19:00.987Z,100.00
2019-04-25T01:24:19.670Z,98.20
2019-04-25T01:29:38.289Z,98.06
2019-04-25T01:35:01.221Z,98.23
2019-04-25T01:40:21.505Z,98.74
2019-04-25T01:45:40.488Z,99.15
2019-04-25T01:50:58.966Z,100.00
2019-04-25T01:56:17.573Z,100.00
2019-04-25T02:01:37.655Z,100.00
2019-04-25T02:06:57.722Z,100.00
2019-04-25T02:12:20.230Z,100.00
2019-04-25T02:17:38.305Z,100.00
2019-04-25T02:22:57.852Z,99.04
2019-04-25T02:28:16.511Z,98.19
2019-04-25T02:33:35.149Z,96.70
2019-04-25T02:38:57.547Z,95.88
2019-04-25T02:44:14.579Z,95.50
2019-04-25T02:49:39.363Z,95.55
2019-04-25T02:54:58.432Z,93.82
2019-04-25T03:00:27.297Z,93.31
2019-04-25T03:05:47.779Z,92.57
2019-04-25T03:11:08.090Z,92.15
2019-04-25T03:16:26.921Z,93.36
2019-04-25T03:21:47.276Z,93.02
2019-04-25T03:27:06.190Z,90.52
2019-04-25T03:32:28.476Z,90.84
2019-04-25T03:37:46.013Z,91.24
2019-04-25T03:43:05.109Z,89.57
2019-04-25T03:48:25.232Z,90.39
2019-04-25T03:53:43.865Z,87.06
2019-04-25T03:59:04.835Z,86.80
2019-04-25T04:04:23.720Z,89.71
2019-04-25T04:09:43.558Z,87.82
2019-04-25T04:15:04.679Z,87.02
2019-04-25T04:20:24.208Z,88.84
2019-04-25T04:25:43.352Z,87.40
2019-04-25T04:31:03.591Z,88.71
2019-04-25T04:36:23.694Z,88.40
2019-04-25T04:41:43.629Z,88.08
2019-04-25T04:47:03.995Z,86.38
2019-04-25T04:52:25.190Z,84.64
2019-04-25T04:57:44.725Z,78.47
2019-04-25T05:03:07.945Z,73.79
2019-04-25T05:08:28.206Z,73.40
2019-04-25T05:13:46.827Z,70.53
2019-04-25T05:19:05.467Z,70.26
2019-04-25T05:24:25.012Z,67.09
2019-04-25T05:29:44.791Z,64.33
2019-04-25T05:35:03.826Z,65.79
2019-04-25T05:40:24.122Z,67.56
2019-04-25T05:45:44.004Z,70.12
2019-04-25T05:51:03.930Z,67.04
2019-04-25T05:56:25.816Z,63.36
2019-04-25T06:01:43.439Z,60.73
2019-04-25T06:07:05.706Z,64.79
2019-04-25T06:12:26.512Z,63.84
2019-04-25T06:17:46.772Z,60.70
2019-04-25T06:23:07.031Z,54.25
2019-04-25T06:28:28.226Z,54.74
2019-04-25T06:33:46.886Z,53.29
2019-04-25T06:39:07.606Z,48.95
2019-04-25T06:44:34.564Z,55.21
2019-04-25T06:49:53.380Z,57.46
2019-04-25T06:55:12.001Z,56.94
2019-04-25T07:00:34.254Z,57.98
2019-04-25T07:05:51.148Z,58.30
2019-04-25T07:11:09.683Z,58.30
2019-04-25T07:16:28.300Z,58.86
2019-04-25T07:21:46.952Z,61.04
2019-04-25T07:27:19.593Z,59.08
2019-04-25T07:32:43.969Z,55.54
2019-04-25T07:38:04.009Z,53.92
2019-04-25T07:43:23.348Z,55.80
2019-04-25T07:48:43.644Z,57.27
2019-04-25T07:54:02.464Z,56.32
2019-04-25T07:59:21.367Z,58.71
2019-04-25T08:04:40.010Z,56.57
2019-04-25T08:10:04.059Z,56.20
2019-04-25T08:15:40.725Z,54.40
2019-04-25T08:21:00.268Z,53.12
2019-04-25T08:26:18.903Z,50.10
2019-04-25T08:31:37.761Z,55.35
2019-04-25T08:36:56.443Z,52.46
2019-04-25T08:42:14.998Z,52.46
2019-04-25T08:47:35.778Z,56.25
2019-04-25T08:52:54.410Z,53.66
2019-04-25T08:58:35.286Z,56.36
2019-04-25T09:04:13.226Z,55.86
2019-04-25T09:09:32.644Z,57.22
2019-04-25T09:14:52.276Z,54.27
2019-04-25T09:20:13.929Z,53.52
2019-04-25T09:25:34.547Z,54.74
2019-04-25T09:30:54.029Z,51.43
2019-04-25T09:36:14.161Z,54.89
2019-04-25T09:41:33.577Z,51.87
2019-04-25T09:46:53.697Z,51.81
2019-04-25T09:52:13.980Z,50.23
2019-04-25T09:57:34.170Z,50.06
2019-04-25T10:02:56.122Z,48.68
2019-04-25T10:08:14.940Z,51.83
2019-04-25T10:13:40.045Z,49.64
2019-04-25T10:18:57.785Z,49.73
2019-04-25T10:24:16.933Z,48.05
2019-04-25T10:29:44.402Z,49.17
2019-04-25T10:34:58.486Z,50.10
2019-04-25T10:40:18.588Z,51.50
2019-04-25T10:45:39.792Z,45.78
2019-04-25T10:50:59.611Z,47.09
2019-04-25T10:56:22.047Z,47.73
2019-04-25T11:01:41.214Z,47.23
2019-04-25T11:06:59.938Z,46.42
2019-04-25T11:12:19.027Z,44.90
2019-04-25T11:17:37.571Z,42.90
2019-04-25T11:22:56.628Z,44.34
2019-04-25T11:28:15.266Z,46.91
2019-04-25T11:33:35.356Z,46.93
2019-04-25T11:39:13.479Z,45.51
2019-04-25T11:44:33.295Z,44.22
2019-04-25T11:49:54.184Z,45.55
2019-04-25T11:55:14.319Z,47.04
2019-04-25T12:00:34.239Z,44.14
2019-04-25T12:05:53.155Z,44.38
2019-04-25T12:11:11.799Z,46.33
2019-04-25T12:16:30.753Z,42.99
2019-04-25T12:21:50.253Z,41.07
2019-04-25T12:27:08.893Z,42.73
2019-04-25T12:32:27.447Z,43.13
2019-04-25T12:37:46.047Z,43.44
2019-04-25T12:43:05.223Z,41.33
2019-04-25T12:48:23.955Z,42.59
2019-04-25T12:53:43.803Z,40.92
2019-04-25T12:59:02.632Z,40.79
2019-04-25T13:04:21.187Z,39.61
2019-04-25T13:09:39.808Z,38.04
2019-04-25T13:14:58.357Z,38.70
2019-04-25T13:20:17.044Z,40.11
2019-04-25T13:25:35.512Z,43.16
2019-04-25T13:31:04.066Z,39.94
2019-04-25T13:36:20.352Z,42.82
2019-04-25T13:41:38.979Z,41.11
2019-04-25T13:46:57.526Z,38.44
2019-04-25T13:52:17.733Z,41.99
2019-04-25T13:57:36.368Z,41.72
2019-04-25T14:02:55.059Z,40.85
2019-04-25T14:08:14.905Z,39.83
2019-04-25T14:13:33.557Z,39.29
2019-04-25T14:18:53.665Z,41.07
2019-04-25T14:24:20.273Z,38.36
2019-04-25T14:29:34.817Z,38.56
2019-04-25T14:34:54.456Z,39.58
2019-04-25T14:40:14.042Z,40.92
2019-04-25T14:45:44.006Z,38.30
2019-04-25T14:50:52.907Z,41.07
2019-04-25T14:56:23.686Z,40.43
2019-04-25T15:01:45.002Z,41.98
2019-04-25T15:07:03.156Z,41.69
2019-04-25T15:12:22.459Z,44.26
2019-04-25T15:17:46.413Z,46.43
2019-04-25T15:23:02.403Z,45.06
2019-04-25T15:28:20.848Z,45.55
2019-04-25T15:33:39.843Z,46.92
2019-04-25T15:39:16.435Z,43.22
2019-04-25T15:44:36.639Z,43.08
2019-04-25T15:49:55.190Z,44.82
2019-04-25T15:55:13.891Z,42.87
2019-04-25T16:00:34.999Z,47.19
2019-04-25T16:05:53.704Z,42.45
2019-04-25T16:11:12.860Z,49.04
2019-04-25T16:16:31.736Z,45.68
2019-04-25T16:21:56.106Z,46.06
2019-04-25T16:27:15.692Z,47.36
2019-04-25T16:32:34.633Z,45.17
2019-04-25T16:37:53.292Z,45.01
2019-04-25T16:43:13.563Z,48.39
2019-04-25T16:48:32.215Z,47.36
2019-04-25T16:53:50.762Z,48.30
2019-04-25T16:59:09.721Z,49.33
2019-04-25T17:04:29.774Z,47.97
2019-04-25T17:09:48.525Z,47.29
2019-04-25T17:15:09.301Z,48.96
2019-04-25T17:20:29.901Z,50.63
2019-04-25T17:25:53.150Z,48.41
2019-04-25T17:31:28.424Z,51.54
2019-04-25T17:36:48.601Z,52.10
2019-04-25T17:42:07.341Z,49.49
2019-04-25T17:47:26.050Z,49.22
2019-04-25T17:52:44.633Z,49.20
2019-04-25T17:58:03.303Z,49.68
2019-04-25T18:03:22.798Z,51.68
2019-04-25T18:08:42.917Z,51.78
2019-04-25T18:14:01.473Z,52.89
2019-04-25T18:19:21.744Z,53.58
2019-04-25T18:24:58.209Z,54.36
2019-04-25T18:30:16.916Z,55.26
2019-04-25T18:35:39.291Z,56.61
2019-04-25T18:41:12.836Z,58.01
2019-04-25T18:46:38.958Z,58.87
2019-04-25T18:51:59.243Z,60.37
2019-04-25T18:57:22.255Z,61.03
2019-04-25T19:02:46.051Z,61.49
2019-04-25T19:08:05.204Z,62.31
2019-04-25T19:13:23.792Z,61.02
2019-04-25T19:18:44.515Z,61.77
2019-04-25T19:24:02.899Z,62.19
2019-04-25T19:29:24.447Z,62.57
2019-04-25T19:34:43.001Z,63.99
2019-04-25T19:40:20.838Z,65.33
2019-04-25T19:45:40.938Z,71.58
2019-04-25T19:50:59.651Z,75.50
2019-04-25T19:56:18.275Z,78.03
2019-04-25T20:01:37.062Z,78.62
2019-04-25T20:07:12.256Z,80.02
2019-04-25T20:12:33.696Z,80.83
2019-04-25T20:17:52.344Z,83.05
2019-04-25T20:23:11.343Z,85.07
2019-04-25T20:28:29.958Z,86.35
2019-04-25T20:34:02.361Z,87.72
2019-04-25T20:39:09.040Z,88.08
2019-04-25T20:44:27.652Z,89.03
2019-04-25T20:49:46.731Z,89.47
2019-04-25T20:55:07.318Z,89.53
2019-04-25T21:00:40.487Z,90.37
2019-04-25T21:06:15.755Z,90.53
2019-04-25T21:11:34.381Z,90.26
2019-04-25T21:16:58.549Z,90.54
2019-04-25T21:22:17.308Z,90.30
2019-04-25T21:27:36.037Z,90.18
2019-04-25T21:32:55.611Z,89.87
2019-04-25T21:38:15.405Z,89.18
2019-04-25T21:43:35.716Z,89.14
2019-04-25T21:48:54.771Z,89.51
2019-04-25T21:54:13.299Z,89.53
2019-04-25T21:59:32.220Z,89.30
2019-04-25T22:04:50.950Z,90.23
2019-04-25T22:10:10.217Z,91.07
2019-04-25T22:15:28.758Z,91.19
2019-04-25T22:20:47.551Z,90.61
2019-04-25T22:26:07.040Z,88.55
2019-04-25T22:31:27.522Z,87.63
2019-04-25T22:36:46.158Z,88.65
2019-04-25T22:42:05.840Z,87.83
2019-04-25T22:47:24.534Z,88.99
2019-04-25T22:52:43.127Z,88.79
2019-04-25T22:58:02.772Z,88.33
2019-04-25T23:03:32.656Z,88.28
2019-04-25T23:08:51.221Z,88.75
2019-04-25T23:14:09.760Z,90.01
2019-04-25T23:19:28.384Z,90.31
2019-04-25T23:24:48.833Z,91.50
2019-04-25T23:30:10.112Z,92.33
2019-04-25T23:35:29.818Z,91.89
2019-04-25T23:40:49.184Z,94.34
2019-04-25T23:46:08.261Z,94.41
2019-04-25T23:51:27.211Z,94.79
2019-04-25T23:56:45.990Z,95.08
